Time;durP1;ratioP1;P1;durP2;ratioP2;P2;SDS_P1;SDS_P2;PMS_P1;PMS_P2;Temp;Humidity;BMP_temperature;BMP_pressure;BME280_temperature;BME280_humidity;BME280_pressure;Samples;Min_cycle;Max_cycle;Signal;HPM_P1;HPM_P2
2022/10/04 00:01:05;;;;;;;3.63;2.80;;;14.40;65.10;;;;;;4968420;28;20479;-49
2022/10/04 00:03:41;;;;;;;5.18;3.03;;;14.40;65.30;;;;;;4970460;28;20063;-48
2022/10/04 00:06:16;;;;;;;6.03;3.00;;;14.40;65.20;;;;;;4971444;28;20035;-49
2022/10/04 00:08:59;;;;;;;6.20;2.95;;;14.30;65.30;;;;;;4969399;28;20098;-50
2022/10/04 00:11:36;;;;;;;5.07;2.83;;;14.40;65.40;;;;;;4982359;28;20050;-47
2022/10/04 00:14:23;;;;;;;4.60;2.72;;;14.30;65.30;;;;;;4971270;28;20039;-48
2022/10/04 00:16:53;;;;;;;4.47;2.78;;;14.30;65.60;;;;;;4964939;28;20488;-50
2022/10/04 00:19:22;;;;;;;4.05;2.40;;;14.30;65.20;;;;;;4965711;28;20045;-51
2022/10/04 00:21:57;;;;;;;3.80;3.30;;;14.30;65.30;;;;;;4971319;28;20039;-52
2022/10/04 00:24:33;;;;;;;4.82;2.90;;;14.30;65.50;;;;;;4970444;28;20117;-48
2022/10/04 00:27:19;;;;;;;6.68;3.10;;;14.30;65.80;;;;;;4966678;28;20049;-49
2022/10/04 00:30:01;;;;;;;3.53;3.03;;;14.30;66.20;;;;;;4962484;28;20130;-51
2022/10/04 00:32:40;;;;;;;5.32;3.28;;;14.30;65.80;;;;;;4973800;28;20117;-48
2022/10/04 00:35:25;;;;;;;7.75;3.38;;;14.30;66.10;;;;;;4974372;28;20057;-47
2022/10/04 00:38:12;;;;;;;4.50;2.83;;;14.30;66.20;;;;;;4971402;28;20167;-49
2022/10/04 00:41:00;;;;;;;3.28;2.78;;;14.30;66.30;;;;;;4967156;28;20562;-51
2022/10/04 00:43:39;;;;;;;4.60;2.92;;;14.30;66.20;;;;;;4974422;28;20039;-52
2022/10/04 00:46:20;;;;;;;4.07;3.03;;;14.30;65.90;;;;;;4974256;28;20053;-51
2022/10/04 00:48:55;;;;;;;5.95;3.00;;;14.30;66.20;;;;;;4971671;28;20050;-51
2022/10/04 00:51:45;;;;;;;3.90;3.47;;;14.20;66.00;;;;;;4974365;28;20412;-48
2022/10/04 00:54:17;;;;;;;3.55;2.97;;;14.20;66.40;;;;;;4974225;28;20042;-52
2022/10/04 00:56:54;;;;;;;4.20;2.92;;;14.20;65.90;;;;;;4970194;28;20043;-48
2022/10/04 00:59:53;;;;;;;7.03;3.10;;;14.20;66.00;;;;;;4974333;28;20039;-51
2022/10/04 01:02:43;;;;;;;3.58;3.28;;;14.20;65.90;;;;;;4957064;28;20051;-50
2022/10/04 01:05:29;;;;;;;3.25;2.97;;;14.20;65.90;;;;;;4972225;28;20035;-51
2022/10/04 01:08:01;;;;;;;3.50;2.72;;;14.20;66.00;;;;;;4970957;28;20039;-52
2022/10/04 01:10:35;;;;;;;3.42;2.78;;;14.10;65.90;;;;;;4974097;28;20047;-51
2022/10/04 01:13:24;;;;;;;4.50;3.57;;;14.20;66.00;;;;;;4974173;28;20404;-50
2022/10/04 01:16:14;;;;;;;4.47;3.03;;;14.10;66.60;;;;;;4967089;28;20678;-51
2022/10/04 01:18:41;;;;;;;3.40;3.10;;;14.20;66.50;;;;;;4973874;28;20063;-52
2022/10/04 01:21:26;;;;;;;4.72;2.78;;;14.10;66.00;;;;;;4974040;28;20066;-48
2022/10/04 01:23:58;;;;;;;4.07;3.50;;;14.10;66.50;;;;;;4970596;28;20031;-52
2022/10/04 01:26:28;;;;;;;4.28;3.33;;;14.10;66.00;;;;;;4969588;28;20093;-49
2022/10/04 01:28:59;;;;;;;3.47;3.17;;;14.10;66.00;;;;;;4969497;28;20407;-48
2022/10/04 01:31:31;;;;;;;5.43;3.63;;;14.00;65.90;;;;;;4972399;28;20047;-51
2022/10/04 01:33:59;;;;;;;5.60;3.83;;;14.00;66.10;;;;;;4973329;28;20050;-50
2022/10/04 01:36:27;;;;;;;4.22;3.60;;;14.00;66.00;;;;;;4973632;28;20519;-48
2022/10/04 01:38:57;;;;;;;6.22;3.25;;;14.00;66.00;;;;;;4970351;28;20039;-49
2022/10/04 01:41:41;;;;;;;4.35;3.00;;;13.90;65.90;;;;;;4973566;28;20410;-48
2022/10/04 01:44:13;;;;;;;3.63;3.33;;;13.90;66.00;;;;;;4968487;28;20045;-49
2022/10/04 01:46:43;;;;;;;5.53;3.45;;;13.90;65.70;;;;;;4966057;28;20101;-49
2022/10/04 01:49:15;;;;;;;4.15;3.75;;;13.90;65.70;;;;;;4973575;28;20046;-49
2022/10/04 01:51:54;;;;;;;4.00;3.53;;;13.80;65.70;;;;;;4971208;28;20039;-48
2022/10/04 01:54:29;;;;;;;4.65;3.38;;;13.80;65.60;;;;;;4971388;28;20039;-51
2022/10/04 01:57:09;;;;;;;5.10;3.70;;;13.80;65.70;;;;;;4972873;28;20550;-49
2022/10/04 01:59:48;;;;;;;4.25;3.13;;;13.80;65.80;;;;;;4973362;28;20043;-48
2022/10/04 02:02:25;;;;;;;3.97;3.50;;;13.80;66.00;;;;;;4968543;28;20046;-49
2022/10/04 02:04:56;;;;;;;6.82;3.63;;;13.70;66.10;;;;;;4972661;28;20042;-49
2022/10/04 02:07:27;;;;;;;4.30;3.75;;;13.70;66.20;;;;;;4972748;28;20527;-52
2022/10/04 02:09:58;;;;;;;4.47;3.40;;;13.70;66.40;;;;;;4973283;28;20049;-52
2022/10/04 02:12:27;;;;;;;4.22;3.10;;;13.70;66.50;;;;;;4967860;28;20536;-51
2022/10/04 02:14:55;;;;;;;4.88;3.40;;;13.70;66.60;;;;;;4972413;28;20046;-51
2022/10/04 02:17:28;;;;;;;6.78;3.35;;;13.70;66.70;;;;;;4972691;28;20046;-49
2022/10/04 02:19:56;;;;;;;5.07;3.15;;;13.70;67.00;;;;;;4972576;28;20045;-52
2022/10/04 02:22:25;;;;;;;6.65;3.75;;;13.70;66.80;;;;;;4966574;28;20047;-48
2022/10/04 02:24:55;;;;;;;3.42;3.10;;;13.70;66.80;;;;;;4972166;28;20043;-49
2022/10/04 02:27:28;;;;;;;6.28;3.72;;;13.70;66.80;;;;;;4972930;28;20414;-50
2022/10/04 02:30:02;;;;;;;4.80;2.90;;;13.70;66.70;;;;;;4964516;28;20067;-49
2022/10/04 02:35:18;;;;;;;3.03;2.72;;;13.70;66.40;;;;;;4972542;28;20043;-48
2022/10/04 02:37:52;;;;;;;3.75;3.45;;;13.70;66.30;;;;;;4970121;28;20492;-51
2022/10/04 02:40:25;;;;;;;3.78;3.13;;;13.70;66.30;;;;;;4966189;28;20114;-47
2022/10/04 02:43:13;;;;;;;5.22;3.17;;;13.60;66.20;;;;;;4972403;28;20122;-48
2022/10/04 02:46:07;;;;;;;3.10;2.80;;;13.60;66.70;;;;;;4964734;28;20121;-51
2022/10/04 02:48:46;;;;;;;5.30;3.20;;;13.60;67.00;;;;;;4972480;28;20093;-51
2022/10/04 02:51:33;;;;;;;2.85;2.53;;;13.60;67.00;;;;;;4965770;28;20097;-48
2022/10/04 02:54:23;;;;;;;3.90;3.10;;;13.60;67.30;;;;;;4971206;28;20062;-48
2022/10/04 02:56:55;;;;;;;4.60;2.97;;;13.60;67.80;;;;;;4972313;28;20558;-47
2022/10/04 02:59:24;;;;;;;3.67;3.08;;;13.60;67.50;;;;;;4967359;28;20050;-50
2022/10/04 03:01:54;;;;;;;4.75;3.20;;;13.60;67.50;;;;;;4972244;28;20603;-48
2022/10/04 03:04:29;;;;;;;3.83;2.95;;;13.70;67.70;;;;;;4971871;28;20053;-51
2022/10/04 03:07:00;;;;;;;3.65;2.88;;;13.60;67.70;;;;;;4967245;28;20039;-49
2022/10/04 03:09:27;;;;;;;3.10;2.80;;;13.70;67.50;;;;;;4972032;28;20492;-48
2022/10/04 03:11:56;;;;;;;4.05;3.28;;;13.70;67.30;;;;;;4972270;28;20047;-50
2022/10/04 03:14:25;;;;;;;4.43;2.90;;;13.70;67.30;;;;;;4966515;28;20415;-50
2022/10/04 03:16:55;;;;;;;3.55;2.97;;;13.70;67.20;;;;;;4969424;28;20042;-47
2022/10/04 03:19:27;;;;;;;5.82;2.88;;;13.70;67.10;;;;;;4971114;28;20579;-49
2022/10/04 03:21:57;;;;;;;4.35;3.00;;;13.70;67.00;;;;;;4971565;28;20051;-48
2022/10/04 03:24:48;;;;;;;2.95;2.38;;;13.70;67.00;;;;;;4971297;28;20047;-52
2022/10/04 03:27:25;;;;;;;3.10;2.80;;;13.60;66.80;;;;;;4967786;28;20078;-52
2022/10/04 03:29:54;;;;;;;4.82;2.80;;;13.60;66.90;;;;;;4964957;28;20043;-51
2022/10/04 03:32:26;;;;;;;6.93;3.47;;;13.60;66.80;;;;;;4970569;28;20043;-49
2022/10/04 03:34:59;;;;;;;2.88;2.53;;;13.50;66.70;;;;;;4971503;28;20042;-51
2022/10/04 03:37:33;;;;;;;5.90;3.30;;;13.60;67.10;;;;;;4966890;28;20039;-48
2022/10/04 03:40:07;;;;;;;4.90;3.28;;;13.50;67.20;;;;;;4967290;28;20455;-48
2022/10/04 03:42:36;;;;;;;3.72;3.30;;;13.50;67.30;;;;;;4971250;28;20043;-50
2022/10/04 03:45:15;;;;;;;4.78;3.15;;;13.50;67.30;;;;;;4967816;28;20395;-51
2022/10/04 03:47:47;;;;;;;4.65;3.80;;;13.50;67.80;;;;;;4964761;28;20050;-50
2022/10/04 03:50:24;;;;;;;4.70;3.20;;;13.40;67.50;;;;;;4971778;28;20651;-48
2022/10/04 03:53:02;;;;;;;4.50;3.53;;;13.40;67.40;;;;;;4971429;28;20452;-48
2022/10/04 03:55:37;;;;;;;3.80;2.80;;;13.40;67.20;;;;;;4965681;28;20043;-51
2022/10/04 03:58:05;;;;;;;4.03;2.80;;;13.40;67.20;;;;;;4971309;28;20069;-50
2022/10/04 04:00:38;;;;;;;3.95;2.75;;;13.30;66.90;;;;;;4971656;28;20049;-48
2022/10/04 04:03:11;;;;;;;5.53;3.25;;;13.30;67.20;;;;;;4966846;28;20423;-48
2022/10/04 04:05:53;;;;;;;5.28;3.20;;;13.30;67.30;;;;;;4964271;28;20525;-49
2022/10/04 04:08:36;;;;;;;5.45;3.45;;;13.30;67.80;;;;;;4975547;28;20459;-50
2022/10/04 04:11:06;;;;;;;3.53;2.78;;;13.30;67.70;;;;;;4969118;28;20043;-52
2022/10/04 04:13:40;;;;;;;4.80;3.40;;;13.30;67.60;;;;;;4972122;28;20050;-49
2022/10/04 04:16:11;;;;;;;2.70;2.50;;;13.30;67.60;;;;;;4972167;28;20817;-50
2022/10/04 04:18:42;;;;;;;4.43;2.83;;;13.30;67.60;;;;;;4975140;28;20038;-49
2022/10/04 04:21:13;;;;;;;3.13;2.90;;;13.30;67.80;;;;;;4975160;28;20045;-51
2022/10/04 04:23:47;;;;;;;3.70;3.15;;;13.30;67.80;;;;;;4968034;28;20518;-51
2022/10/04 04:26:31;;;;;;;5.82;3.50;;;13.30;68.00;;;;;;4969390;28;20047;-49
2022/10/04 04:29:13;;;;;;;3.92;3.05;;;13.20;68.30;;;;;;4965364;28;20054;-48
2022/10/04 04:31:41;;;;;;;7.82;3.42;;;13.30;68.40;;;;;;4968422;28;20042;-51
2022/10/04 04:34:21;;;;;;;6.85;3.80;;;13.20;68.10;;;;;;4971343;28;20098;-50
2022/10/04 04:36:48;;;;;;;5.18;3.60;;;13.20;68.60;;;;;;4968467;28;20046;-48
2022/10/04 04:39:44;;;;;;;3.88;3.42;;;13.30;68.30;;;;;;4973818;28;20046;-49
2022/10/04 04:42:22;;;;;;;3.38;3.08;;;13.30;68.80;;;;;;4971371;28;20122;-48
2022/10/04 04:45:17;;;;;;;3.95;3.15;;;13.20;68.60;;;;;;4967772;28;20039;-49
2022/10/04 04:47:47;;;;;;;4.80;3.47;;;13.30;68.90;;;;;;4972822;28;20045;-52
2022/10/04 04:50:17;;;;;;;6.28;3.08;;;13.20;68.00;;;;;;4971508;28;20570;-49
2022/10/04 04:52:50;;;;;;;3.60;3.15;;;13.20;67.90;;;;;;4967160;28;20049;-52
2022/10/04 04:55:27;;;;;;;4.47;3.60;;;13.20;67.80;;;;;;4974007;28;20049;-52
2022/10/04 04:57:56;;;;;;;6.75;3.72;;;13.20;68.10;;;;;;4963230;28;20496;-48
2022/10/04 05:00:33;;;;;;;5.93;3.80;;;13.20;68.00;;;;;;4969154;28;20673;-52
2022/10/04 05:03:03;;;;;;;6.18;3.42;;;13.10;68.00;;;;;;4971461;28;20514;-48
2022/10/04 05:05:32;;;;;;;4.20;2.92;;;13.10;67.90;;;;;;4973878;28;20057;-50
2022/10/04 05:08:23;;;;;;;4.55;3.35;;;13.10;67.90;;;;;;4973521;28;20499;-47
2022/10/04 05:11:07;;;;;;;7.10;3.80;;;13.10;68.40;;;;;;4968050;28;20078;-51
2022/10/04 05:13:41;;;;;;;6.38;3.70;;;13.00;68.00;;;;;;4973752;28;20042;-48
2022/10/04 05:16:18;;;;;;;7.15;4.10;;;13.00;68.00;;;;;;4973894;28;20047;-51
2022/10/04 05:18:45;;;;;;;5.88;3.40;;;13.00;68.10;;;;;;4973130;28;20455;-52
2022/10/04 05:21:43;;;;;;;5.32;3.30;;;13.00;67.90;;;;;;4968914;28;20041;-53
2022/10/04 05:24:20;;;;;;;4.28;3.58;;;12.90;68.60;;;;;;4953899;28;20464;-48
2022/10/04 05:26:54;;;;;;;7.70;3.80;;;12.90;68.50;;;;;;4973568;28;20057;-47
2022/10/04 05:29:25;;;;;;;5.47;3.70;;;12.90;68.40;;;;;;4963085;28;20691;-46
2022/10/04 05:32:15;;;;;;;6.60;3.95;;;12.90;68.40;;;;;;4972218;28;20458;-47
2022/10/04 05:34:47;;;;;;;6.22;4.22;;;12.90;68.40;;;;;;4952698;28;20051;-48
2022/10/04 05:37:18;;;;;;;4.40;3.30;;;12.80;68.20;;;;;;4960431;28;20507;-49
2022/10/04 05:39:50;;;;;;;4.85;3.75;;;12.80;68.00;;;;;;4974326;28;20045;-48
2022/10/04 05:42:17;;;;;;;6.18;4.03;;;12.80;68.30;;;;;;4967509;28;20399;-48
2022/10/04 05:44:53;;;;;;;4.32;3.92;;;12.80;68.00;;;;;;4969043;28;20122;-48
2022/10/04 05:47:23;;;;;;;5.70;3.45;;;12.80;68.30;;;;;;4963507;28;20520;-48
2022/10/04 05:49:56;;;;;;;6.03;3.35;;;12.80;68.10;;;;;;4974215;28;20046;-47
2022/10/04 05:52:29;;;;;;;;;;;12.70;68.20;;;;;;4972372;28;20059;-48
2022/10/04 05:55:11;;;;;;;6.57;3.38;;;12.80;68.50;;;;;;4972648;28;20623;-51
2022/10/04 05:57:53;;;;;;;4.97;3.55;;;12.70;68.20;;;;;;4965704;28;20043;-49
2022/10/04 06:00:20;;;;;;;3.72;2.88;;;12.70;68.00;;;;;;4971140;28;20039;-51
2022/10/04 06:03:17;;;;;;;4.90;3.67;;;12.70;67.80;;;;;;4966211;28;20047;-48
2022/10/04 06:05:49;;;;;;;5.90;3.92;;;12.70;68.40;;;;;;4966847;28;20038;-51
2022/10/04 06:08:28;;;;;;;5.57;3.67;;;12.70;68.00;;;;;;4970853;28;20047;-48
2022/10/04 06:11:26;;;;;;;6.68;3.85;;;12.70;68.50;;;;;;4969323;28;20407;-47
2022/10/04 06:14:08;;;;;;;6.18;3.55;;;12.70;69.00;;;;;;4969848;28;20046;-51
2022/10/04 06:16:53;;;;;;;5.63;3.83;;;12.70;68.80;;;;;;4969844;28;20051;-48
2022/10/04 06:20:00;;;;;;;5.35;3.63;;;12.70;69.10;;;;;;4970533;28;20450;-52
2022/10/04 06:22:27;;;;;;;7.03;3.30;;;12.70;69.40;;;;;;4971046;28;20055;-48
2022/10/04 06:25:01;;;;;;;4.50;3.75;;;12.80;68.80;;;;;;4968317;28;20039;-48
2022/10/04 06:27:47;;;;;;;5.10;3.33;;;12.80;69.00;;;;;;4970392;28;20046;-46
2022/10/04 06:30:16;;;;;;;5.60;4.30;;;12.80;69.00;;;;;;4975777;28;20038;-48
2022/10/04 06:32:55;;;;;;;5.43;3.83;;;12.80;69.10;;;;;;4959998;28;20434;-48
2022/10/04 06:35:41;;;;;;;5.63;4.43;;;12.80;69.70;;;;;;4970359;28;20065;-53
2022/10/04 06:38:34;;;;;;;5.25;3.88;;;12.90;69.80;;;;;;4970313;28;20051;-52
2022/10/04 06:41:32;;;;;;;5.68;3.90;;;12.90;69.20;;;;;;4925674;28;20059;-51
2022/10/04 06:44:27;;;;;;;8.02;4.18;;;12.90;69.60;;;;;;4962746;28;20507;-50
2022/10/04 06:47:42;;;;;;;7.22;4.72;;;13.00;70.00;;;;;;4966510;28;20041;-49
2022/10/04 06:50:39;;;;;;;6.32;4.25;;;13.00;70.20;;;;;;4952558;28;20051;-51
2022/10/04 06:53:15;;;;;;;5.38;3.97;;;13.00;69.90;;;;;;4951597;28;20049;-50
2022/10/04 06:56:03;;;;;;;8.82;4.43;;;13.10;69.70;;;;;;4969112;28;20042;-50
2022/10/04 06:58:38;;;;;;;5.38;4.38;;;13.10;70.00;;;;;;4970778;28;20499;-46
2022/10/04 07:01:12;;;;;;;6.78;4.63;;;13.10;69.50;;;;;;4971494;28;20086;-49
2022/10/04 07:03:50;;;;;;;6.68;4.70;;;13.10;69.50;;;;;;4968791;28;20400;-48
2022/10/04 07:06:26;;;;;;;6.18;4.15;;;13.20;69.90;;;;;;4969119;28;20475;-48
2022/10/04 07:09:01;;;;;;;6.05;4.18;;;13.20;69.90;;;;;;4971938;28;20050;-52
2022/10/04 07:11:53;;;;;;;6.25;4.05;;;13.30;69.90;;;;;;4966644;28;20411;-48
2022/10/04 07:14:32;;;;;;;5.03;4.50;;;13.30;70.20;;;;;;4971903;28;20047;-47
2022/10/04 07:17:04;;;;;;;8.07;5.40;;;13.40;70.10;;;;;;4970986;28;20054;-52
2022/10/04 07:19:44;;;;;;;9.13;5.72;;;13.40;69.90;;;;;;4968505;28;20097;-48
2022/10/04 07:22:30;;;;;;;7.35;4.97;;;13.50;69.90;;;;;;4966064;28;20113;-51
2022/10/04 07:25:21;;;;;;;7.03;5.38;;;13.60;69.80;;;;;;4963998;28;20042;-50
2022/10/04 07:31:01;;;;;;;9.57;5.80;;;13.70;70.00;;;;;;4969268;28;20412;-52
2022/10/04 07:33:31;;;;;;;10.20;6.82;;;13.80;69.80;;;;;;4957901;28;20043;-48
2022/10/04 07:36:21;;;;;;;9.50;6.63;;;13.80;69.50;;;;;;4971546;28;20110;-47
2022/10/04 07:39:04;;;;;;;8.98;6.68;;;13.90;70.00;;;;;;4952174;28;20730;-52
2022/10/04 07:42:00;;;;;;;10.68;7.68;;;13.90;69.90;;;;;;4970189;28;20057;-47
2022/10/04 07:44:39;;;;;;;10.75;8.05;;;13.90;69.70;;;;;;4973216;28;20051;-50
2022/10/04 07:47:25;;;;;;;11.70;7.78;;;14.00;69.90;;;;;;4974430;28;20046;-50
2022/10/04 07:49:53;;;;;;;8.98;6.68;;;14.00;69.90;;;;;;4972340;28;20056;-51
2022/10/04 07:52:38;;;;;;;6.40;5.80;;;14.00;69.30;;;;;;4974587;28;20043;-48
2022/10/04 07:55:48;;;;;;;8.63;6.18;;;14.10;69.80;;;;;;4975760;28;20051;-52
2022/10/04 07:58:33;;;;;;;10.00;6.03;;;14.10;69.60;;;;;;4971062;28;20122;-49
2022/10/04 08:01:39;;;;;;;7.88;6.30;;;14.10;68.90;;;;;;4973117;28;20049;-49
2022/10/04 08:04:13;;;;;;;7.97;6.38;;;14.10;69.40;;;;;;4968848;28;20047;-50
2022/10/04 08:06:59;;;;;;;9.15;6.10;;;14.10;69.00;;;;;;4967090;28;20035;-47
2022/10/04 08:09:40;;;;;;;8.57;6.13;;;14.00;69.60;;;;;;4975289;28;20553;-52
2022/10/04 08:12:46;;;;;;;10.75;7.05;;;14.00;69.40;;;;;;4969203;28;20055;-47
2022/10/04 08:15:13;;;;;;;8.25;6.40;;;14.00;69.80;;;;;;4974381;28;20407;-48
2022/10/04 08:18:00;;;;;;;8.40;6.63;;;14.00;69.20;;;;;;4971085;28;20097;-51
2022/10/04 08:20:35;;;;;;;11.50;6.63;;;14.00;70.00;;;;;;4975002;28;20043;-50
2022/10/04 08:23:26;;;;;;;8.00;5.97;;;14.00;69.50;;;;;;4974119;28;20049;-48
2022/10/04 08:26:27;;;;;;;8.50;6.03;;;14.10;70.30;;;;;;4974424;28;20066;-51
2022/10/04 08:29:41;;;;;;;6.68;5.97;;;14.10;70.40;;;;;;4913296;28;20055;-51
2022/10/04 08:32:26;;;;;;;11.40;6.18;;;14.10;70.40;;;;;;4970145;28;20039;-48
2022/10/04 08:35:04;;;;;;;8.63;5.57;;;14.10;70.00;;;;;;4973433;28;20113;-51
2022/10/04 08:38:02;;;;;;;8.02;5.30;;;14.10;70.10;;;;;;4969641;28;20078;-51
2022/10/04 08:41:07;;;;;;;8.63;5.57;;;14.20;70.40;;;;;;4974985;28;20042;-48
2022/10/04 08:44:01;;;;;;;8.10;5.00;;;14.20;70.70;;;;;;4968245;28;20440;-49
2022/10/04 08:47:11;;;;;;;8.50;5.53;;;14.30;70.20;;;;;;4973554;28;20047;-52
2022/10/04 08:50:08;;;;;;;7.90;4.55;;;14.30;70.80;;;;;;4953604;28;20704;-49
2022/10/04 08:53:09;;;;;;;7.22;4.25;;;14.30;70.90;;;;;;4962988;28;20050;-50
2022/10/04 08:56:07;;;;;;;6.57;3.95;;;14.40;70.60;;;;;;4969089;28;20050;-52
2022/10/04 08:58:58;;;;;;;4.97;3.83;;;14.50;70.50;;;;;;4972787;28;20491;-53
2022/10/04 09:01:56;;;;;;;6.65;4.50;;;14.60;70.40;;;;;;4972709;28;20070;-52
2022/10/04 09:05:07;;;;;;;7.28;3.95;;;14.60;70.70;;;;;;4971137;28;20062;-54
2022/10/04 09:07:49;;;;;;;5.72;3.90;;;14.70;70.70;;;;;;4960350;28;20723;-49
2022/10/04 09:10:35;;;;;;;8.07;4.70;;;14.80;70.70;;;;;;4965902;28;20061;-51
2022/10/04 09:13:14;;;;;;;6.00;3.55;;;14.80;70.70;;;;;;4970022;28;20050;-53
2022/10/04 09:16:02;;;;;;;7.35;4.35;;;14.90;70.50;;;;;;4966633;28;20518;-54
2022/10/04 09:18:35;;;;;;;5.13;4.15;;;15.00;70.20;;;;;;4970493;28;20066;-51
2022/10/04 09:21:19;;;;;;;6.22;4.07;;;15.10;70.20;;;;;;4972587;28;20042;-52
2022/10/04 09:24:05;;;;;;;6.93;4.07;;;15.20;69.90;;;;;;4967466;28;20046;-51
2022/10/04 09:27:09;;;;;;;5.80;3.55;;;15.20;70.30;;;;;;4972177;28;20527;-48
2022/10/04 09:29:58;;;;;;;7.97;3.72;;;15.30;70.70;;;;;;4973161;28;20071;-53
2022/10/04 09:33:02;;;;;;;5.35;4.07;;;15.40;69.90;;;;;;4968590;28;20046;-53
2022/10/04 09:36:00;;;;;;;8.43;3.83;;;15.50;69.50;;;;;;4891617;29;20723;-51
2022/10/04 09:39:25;;;;;;;7.35;3.85;;;15.60;69.80;;;;;;4972507;28;20039;-54
2022/10/04 09:42:21;;;;;;;4.85;3.03;;;15.60;69.60;;;;;;4913279;29;20052;-54
2022/10/04 09:45:08;;;;;;;5.65;3.75;;;15.70;69.10;;;;;;4906987;29;20052;-53
2022/10/04 09:47:52;;;;;;;4.95;3.47;;;15.80;68.70;;;;;;4944834;29;20110;-53
2022/10/04 09:50:36;;;;;;;4.75;3.15;;;15.90;68.50;;;;;;4965417;28;20053;-50
2022/10/04 09:53:29;;;;;;;8.50;3.65;;;16.00;67.80;;;;;;4972521;28;20062;-53
2022/10/04 09:56:29;;;;;;;4.15;3.15;;;16.10;67.80;;;;;;4968383;28;20121;-50
2022/10/04 09:59:35;;;;;;;4.93;3.13;;;16.20;67.50;;;;;;4973993;28;20094;-53
2022/10/04 10:02:39;;;;;;;5.57;3.42;;;16.30;67.10;;;;;;4968978;28;20067;-54
2022/10/04 10:05:35;;;;;;;4.88;3.53;;;16.40;66.10;;;;;;4967742;28;20069;-54
2022/10/04 10:08:07;;;;;;;5.13;3.75;;;16.50;65.70;;;;;;4965710;28;20078;-53
2022/10/04 10:14:01;;;;;;;5.80;2.95;;;16.60;66.00;;;;;;4966013;28;20038;-54
2022/10/04 10:16:52;;;;;;;5.55;3.85;;;16.70;65.20;;;;;;4973413;28;20047;-53
2022/10/04 10:19:34;;;;;;;5.75;3.13;;;16.80;64.90;;;;;;4967146;28;20150;-52
2022/10/04 10:22:19;;;;;;;6.07;3.10;;;16.80;65.60;;;;;;4968118;28;20039;-53
2022/10/04 10:25:20;;;;;;;6.15;3.25;;;16.90;65.50;;;;;;4970579;28;20061;-53
2022/10/04 10:27:56;;;;;;;4.47;3.53;;;17.00;65.00;;;;;;4954096;28;20043;-52
2022/10/04 10:30:56;;;;;;;5.15;2.85;;;17.10;65.20;;;;;;4968821;28;20047;-54
2022/10/04 10:33:36;;;;;;;6.30;3.35;;;17.10;64.80;;;;;;4972926;28;20066;-54
2022/10/04 10:36:48;;;;;;;4.93;3.30;;;17.20;65.00;;;;;;4970107;28;20049;-51
2022/10/04 10:39:33;;;;;;;4.18;3.28;;;17.20;63.90;;;;;;4950361;28;20419;-51
2022/10/04 10:42:26;;;;;;;5.20;3.47;;;17.30;64.30;;;;;;4972025;28;20070;-51
2022/10/04 10:45:05;;;;;;;;;;;17.40;64.40;;;;;;4962525;28;20038;-54
2022/10/04 10:47:50;;;;;;;5.13;2.70;;;17.50;64.70;;;;;;4969374;28;19989;-53
2022/10/04 10:50:57;;;;;;;6.63;3.10;;;17.60;64.10;;;;;;4969710;28;20061;-51
2022/10/04 10:53:30;;;;;;;4.95;3.03;;;17.60;63.60;;;;;;4972362;28;20047;-54
2022/10/04 10:56:15;;;;;;;7.55;4.07;;;17.70;63.70;;;;;;4972797;28;20047;-53
2022/10/04 10:59:06;;;;;;;3.92;3.50;;;17.80;63.80;;;;;;4995321;22;20638;-50
2022/10/04 11:02:08;;;;;;;3.38;2.78;;;17.80;63.10;;;;;;5002718;28;20053;-49
2022/10/04 11:05:13;;;;;;;5.07;3.47;;;17.90;63.30;;;;;;5011398;28;20069;-53
2022/10/04 11:08:14;;;;;;;2.83;2.35;;;18.00;62.90;;;;;;4991658;28;20046;-50
2022/10/04 11:11:06;;;;;;;3.30;2.67;;;18.10;63.10;;;;;;4951508;28;20057;-49
2022/10/04 11:14:01;;;;;;;5.10;2.90;;;18.10;61.80;;;;;;5001508;28;20038;-49
2022/10/04 11:16:52;;;;;;;3.88;2.83;;;18.20;61.80;;;;;;4999691;28;20647;-49
2022/10/04 11:19:37;;;;;;;4.55;3.20;;;18.30;60.80;;;;;;5002246;28;20038;-50
2022/10/04 11:22:48;;;;;;;3.13;2.58;;;18.30;60.70;;;;;;4983941;28;20039;-54
2022/10/04 11:25:33;;;;;;;3.90;2.20;;;18.40;59.80;;;;;;4993685;28;20043;-53
2022/10/04 11:28:37;;;;;;;5.18;2.60;;;18.50;59.30;;;;;;5008053;28;20052;-52
2022/10/04 11:31:12;;;;;;;4.35;2.80;;;18.50;59.70;;;;;;4982136;28;20045;-49
2022/10/04 11:34:10;;;;;;;4.78;2.42;;;18.60;58.90;;;;;;4986583;28;20042;-51
2022/10/04 11:36:48;;;;;;;4.25;2.88;;;18.60;58.50;;;;;;4986669;28;20046;-52
2022/10/04 11:39:34;;;;;;;4.85;1.98;;;18.70;59.40;;;;;;5003994;28;20053;-54
2022/10/04 11:42:20;;;;;;;5.15;2.75;;;18.80;58.60;;;;;;4989484;28;20112;-50
2022/10/04 11:45:02;;;;;;;3.15;2.47;;;18.90;58.20;;;;;;4987868;28;20038;-53
2022/10/04 11:47:28;;;;;;;3.67;2.33;;;18.90;58.60;;;;;;5000083;28;20045;-51
2022/10/04 11:50:14;;;;;;;3.55;2.70;;;19.00;58.20;;;;;;5011284;28;20502;-55
2022/10/04 11:53:03;;;;;;;5.30;2.90;;;19.10;57.20;;;;;;4993328;28;20037;-49
2022/10/04 11:55:53;;;;;;;4.20;2.65;;;19.20;56.90;;;;;;5001655;28;20048;-50
2022/10/04 11:58:34;;;;;;;3.88;2.60;;;19.20;57.60;;;;;;4999634;28;20042;-54
2022/10/04 12:01:07;;;;;;;2.93;2.23;;;19.20;57.20;;;;;;4978419;28;20043;-49
2022/10/04 12:03:39;;;;;;;;;;;19.30;57.40;;;;;;4996668;28;20137;-54
2022/10/04 12:06:34;;;;;;;3.90;2.30;;;19.40;58.30;;;;;;4981886;28;19925;-51
2022/10/04 12:09:24;;;;;;;4.45;3.00;;;19.50;56.60;;;;;;4972103;28;20038;-54
2022/10/04 12:12:36;;;;;;;2.67;2.28;;;19.50;57.40;;;;;;4989579;28;20045;-50
2022/10/04 12:15:21;;;;;;;6.93;3.57;;;19.60;56.60;;;;;;4994221;28;20037;-50
2022/10/04 12:18:06;;;;;;;2.47;2.22;;;19.60;56.30;;;;;;4991226;28;20669;-51
2022/10/04 12:21:01;;;;;;;2.70;1.98;;;19.70;55.00;;;;;;4983979;28;20053;-54
2022/10/04 12:23:48;;;;;;;4.85;2.47;;;19.80;54.10;;;;;;4994634;28;20042;-54
2022/10/04 12:26:46;;;;;;;5.47;2.08;;;19.80;54.10;;;;;;5003128;28;20113;-54
2022/10/04 12:29:26;;;;;;;3.67;2.20;;;19.90;54.40;;;;;;4978213;28;20058;-53
2022/10/04 12:32:10;;;;;;;2.28;1.95;;;19.90;53.30;;;;;;5008914;28;20045;-54
2022/10/04 12:35:13;;;;;;;2.53;2.15;;;20.00;53.30;;;;;;5013919;28;20046;-51
2022/10/04 12:38:07;;;;;;;3.20;2.72;;;20.00;53.20;;;;;;5003883;28;20418;-54
2022/10/04 12:41:02;;;;;;;4.80;2.55;;;20.10;53.00;;;;;;4995698;28;20417;-54
2022/10/04 12:44:02;;;;;;;3.33;2.08;;;20.20;53.00;;;;;;5005621;28;20119;-50
2022/10/04 12:46:52;;;;;;;3.65;2.30;;;20.20;52.90;;;;;;4991116;28;20498;-54
2022/10/04 12:49:53;;;;;;;2.20;1.58;;;20.40;53.50;;;;;;5005579;28;20057;-54
2022/10/04 12:52:24;;;;;;;2.85;1.80;;;20.40;53.80;;;;;;5014117;28;20103;-50
2022/10/04 12:55:16;;;;;;;4.25;2.30;;;20.50;54.00;;;;;;4996638;28;20038;-52
2022/10/04 12:57:57;;;;;;;4.35;2.05;;;20.60;53.40;;;;;;4993226;28;20121;-54
2022/10/04 13:00:27;;;;;;;2.72;2.30;;;20.70;53.80;;;;;;4997705;28;20039;-54
2022/10/04 13:03:07;;;;;;;5.82;2.03;;;20.80;53.10;;;;;;5005498;28;20034;-54
2022/10/04 13:06:11;;;;;;;3.55;2.20;;;20.90;52.60;;;;;;5013970;28;20034;-53
2022/10/04 13:09:18;;;;;;;3.25;2.10;;;21.00;51.80;;;;;;4926965;28;20517;-50
2022/10/04 13:12:02;;;;;;;4.25;1.95;;;21.10;50.90;;;;;;4999040;28;20046;-54
2022/10/04 13:14:48;;;;;;;2.22;1.63;;;21.30;50.70;;;;;;5012173;28;20050;-50
2022/10/04 13:17:25;;;;;;;3.63;2.65;;;21.50;50.60;;;;;;4993784;28;20046;-53
2022/10/04 13:20:30;;;;;;;2.78;1.48;;;21.60;50.20;;;;;;4999159;28;20038;-54
2022/10/04 13:23:24;;;;;;;4.38;1.65;;;21.80;50.20;;;;;;4991374;28;20089;-53
2022/10/04 13:26:14;;;;;;;2.30;2.10;;;21.90;48.70;;;;;;4994029;28;20040;-50
2022/10/04 13:29:01;;;;;;;3.20;2.28;;;22.00;49.10;;;;;;5005239;28;20038;-54
2022/10/04 13:31:52;;;;;;;5.82;2.10;;;22.10;48.60;;;;;;5013634;28;20046;-51
2022/10/04 13:34:37;;;;;;;3.65;1.85;;;22.30;49.10;;;;;;4999665;28;20507;-53
2022/10/04 13:37:23;;;;;;;2.30;1.50;;;22.50;49.00;;;;;;4994389;28;20066;-54
2022/10/04 13:40:20;;;;;;;1.95;1.50;;;23.10;49.30;;;;;;5000473;28;20070;-54
2022/10/04 13:43:11;;;;;;;2.00;1.50;;;23.90;48.80;;;;;;4974213;28;20038;-52
2022/10/04 13:46:17;;;;;;;2.80;1.83;;;25.00;48.70;;;;;;5000356;28;20049;-52
2022/10/04 13:48:56;;;;;;;2.25;1.65;;;26.20;47.30;;;;;;4988078;28;20411;-54
2022/10/04 13:56:35;;;;;;;1.58;1.33;;;27.40;45.20;;;;;;4989596;28;20514;-50
2022/10/04 13:58:24;;;;;;;2.35;1.48;;;29.60;42.50;;;;;;4984509;28;20046;-51
2022/10/04 14:01:15;;;;;;;1.40;1.20;;;30.80;41.30;;;;;;4983121;28;20039;-54
2022/10/04 14:04:05;;;;;;;2.97;2.13;;;31.80;39.80;;;;;;4984013;28;20046;-55
2022/10/04 14:06:47;;;;;;;1.92;1.48;;;32.80;38.90;;;;;;4987510;28;20054;-55
2022/10/04 14:09:32;;;;;;;2.30;1.27;;;33.70;37.90;;;;;;4980160;28;20042;-55
2022/10/04 14:12:40;;;;;;;3.00;1.80;;;34.40;35.40;;;;;;4978506;28;20054;-54
2022/10/04 14:15:31;;;;;;;2.70;1.40;;;35.10;35.30;;;;;;4988081;28;20108;-54
2022/10/04 14:18:30;;;;;;;1.83;1.40;;;35.60;33.70;;;;;;4989143;28;20129;-55
2022/10/04 14:21:11;;;;;;;2.17;1.45;;;35.90;32.60;;;;;;4990380;28;20050;-56
2022/10/04 14:24:13;;;;;;;3.25;1.38;;;36.00;32.90;;;;;;4994897;28;20034;-56